PWSweather.com
Personal Weather Stations
Station Observations
OPENSRS
Liberty Village, Toronto, ON M6K 3M1

Liberty VillageToronto, ON M6K 3M1

Lat: 43.63831, Lon: -79.42566

Elevation: 303

Station Type: Davis Instruments Vantage Pro 2

Latest ConditionsUpdated 4:45:06 AM EDT Thursday, Oct 23, 2014
Currently Today's Max Today's Min Today's Average
Temperature 44.6°F7.0°C 49.7°F9.8°C 44.6°F7.0°C 46.6°F8.1°C
Dew Point 40.7°F4.8°C 43.4°F6.3°C 40.7°F4.8°C 42.0°F5.6°C
Winds 1.0 mph N1.6 kmh N 5.0 mph N8.0 kmh N - 1.8 mph 2.9 kmh
Wind Gusts 4.0 mph6.4 kmh 7.0 mph11.3 kmh - -
Humidity 86% 86% 78% 84%
Pressure 30.20 in1022.7 mb 30.23 in1023.7 mb 30.18 in1022.0 mb -
Hour Temp Dew Point Humidity Winds Wind Gusts Pressure Precip Precip Rate Daily Precip Total
04:45 AM 44.6°F7.0°C 40.7°F4.8°C 86% 1.0 mph N1.6 kmh N 4.0 mph6.4 kmh 30.20 in1022.7 mb 0.00 in0.0 mm 0.00 in/hr0.0 mm/hr 0.00 in0.0 mm
04:44 AM 44.7°F7.1°C 40.8°F4.9°C 86% Calm Calm 4.0 mph6.4 kmh 30.19 in1022.4 mb 0.00 in0.0 mm 0.00 in/hr0.0 mm/hr 0.00 in0.0 mm
04:43 AM 44.7°F7.1°C 40.8°F4.9°C 86% Calm Calm 4.0 mph6.4 kmh 30.19 in1022.4 mb 0.00 in0.0 mm 0.00 in/hr0.0 mm/hr 0.00 in0.0 mm
04:40 AM 44.7°F7.1°C 40.8°F4.9°C 86% 1.0 mph N1.6 kmh N 4.0 mph6.4 kmh 30.19 in1022.4 mb 0.00 in0.0 mm 0.00 in/hr0.0 mm/hr 0.00 in0.0 mm
04:39 AM 44.8°F7.1°C 40.9°F4.9°C 86% 1.0 mph N1.6 kmh N 4.0 mph6.4 kmh 30.19 in1022.4 mb 0.00 in0.0 mm 0.00 in/hr0.0 mm/hr 0.00 in0.0 mm
04:38 AM 44.8°F7.1°C 40.9°F4.9°C 86% Calm Calm 4.0 mph6.4 kmh 30.20 in1022.7 mb 0.00 in0.0 mm 0.00 in/hr0.0 mm/hr 0.00 in0.0 mm
04:35 AM 44.8°F7.1°C 40.9°F4.9°C 86% 3.0 mph N4.8 kmh N 4.0 mph6.4 kmh 30.19 in1022.4 mb 0.00 in0.0 mm 0.00 in/hr0.0 mm/hr 0.00 in0.0 mm
04:34 AM 44.7°F7.1°C 40.8°F4.9°C 86% 3.0 mph N4.8 kmh N 4.0 mph6.4 kmh 30.19 in1022.4 mb 0.00 in0.0 mm 0.00 in/hr0.0 mm/hr 0.00 in0.0 mm
04:33 AM 44.8°F7.1°C 40.9°F4.9°C 86% 2.0 mph N3.2 kmh N 4.0 mph6.4 kmh 30.19 in1022.4 mb 0.00 in0.0 mm 0.00 in/hr0.0 mm/hr 0.00 in0.0 mm
04:30 AM 44.8°F7.1°C 40.9°F4.9°C 86% 2.0 mph N3.2 kmh N 4.0 mph6.4 kmh 30.19 in1022.4 mb 0.00 in0.0 mm 0.00 in/hr0.0 mm/hr 0.00 in0.0 mm
04:29 AM 44.8°F7.1°C 40.9°F4.9°C 86% 3.0 mph N4.8 kmh N 4.0 mph6.4 kmh 30.19 in1022.4 mb 0.00 in0.0 mm 0.00 in/hr0.0 mm/hr 0.00 in0.0 mm
04:28 AM 44.9°F7.2°C 41.0°F5.0°C 86% 2.0 mph N3.2 kmh N 4.0 mph6.4 kmh 30.19 in1022.4 mb 0.00 in0.0 mm 0.00 in/hr0.0 mm/hr 0.00 in0.0 mm
04:25 AM 45.0°F7.2°C 41.1°F5.1°C 86% 2.0 mph N3.2 kmh N 4.0 mph6.4 kmh 30.19 in1022.4 mb 0.00 in0.0 mm 0.00 in/hr0.0 mm/hr 0.00 in0.0 mm
04:24 AM 44.9°F7.2°C 41.0°F5.0°C 86% 3.0 mph N4.8 kmh N 4.0 mph6.4 kmh 30.19 in1022.4 mb 0.00 in0.0 mm 0.00 in/hr0.0 mm/hr 0.00 in0.0 mm
04:23 AM 45.0°F7.2°C 41.1°F5.1°C 86% 3.0 mph N4.8 kmh N 4.0 mph6.4 kmh 30.19 in1022.4 mb 0.00 in0.0 mm 0.00 in/hr0.0 mm/hr 0.00 in0.0 mm
04:20 AM 45.0°F7.2°C 41.1°F5.1°C 86% Calm Calm 4.0 mph6.4 kmh 30.19 in1022.4 mb 0.00 in0.0 mm 0.00 in/hr0.0 mm/hr 0.00 in0.0 mm
04:19 AM 45.0°F7.2°C 41.1°F5.1°C 86% Calm Calm 4.0 mph6.4 kmh 30.19 in1022.4 mb 0.00 in0.0 mm 0.00 in/hr0.0 mm/hr 0.00 in0.0 mm
04:18 AM 45.0°F7.2°C 41.1°F5.1°C 86% Calm Calm 4.0 mph6.4 kmh 30.19 in1022.4 mb 0.00 in0.0 mm 0.00 in/hr0.0 mm/hr 0.00 in0.0 mm
04:15 AM 45.0°F7.2°C 41.1°F5.1°C 86% Calm Calm 4.0 mph6.4 kmh 30.19 in1022.4 mb 0.00 in0.0 mm 0.00 in/hr0.0 mm/hr 0.00 in0.0 mm
04:14 AM 45.0°F7.2°C 41.1°F5.1°C 86% 3.0 mph N4.8 kmh N 4.0 mph6.4 kmh 30.19 in1022.4 mb 0.00 in0.0 mm 0.00 in/hr0.0 mm/hr 0.00 in0.0 mm
04:13 AM 45.0°F7.2°C 41.1°F5.1°C 86% 3.0 mph N4.8 kmh N 4.0 mph6.4 kmh 30.19 in1022.4 mb 0.00 in0.0 mm 0.00 in/hr0.0 mm/hr 0.00 in0.0 mm
04:10 AM 45.0°F7.2°C 41.1°F5.1°C 86% 3.0 mph N4.8 kmh N 4.0 mph6.4 kmh 30.19 in1022.4 mb 0.00 in0.0 mm 0.00 in/hr0.0 mm/hr 0.00 in0.0 mm
04:09 AM 45.0°F7.2°C 41.1°F5.1°C 86% 1.0 mph N1.6 kmh N 4.0 mph6.4 kmh 30.19 in1022.4 mb 0.00 in0.0 mm 0.00 in/hr0.0 mm/hr 0.00 in0.0 mm
04:08 AM 45.0°F7.2°C 41.1°F5.1°C 86% 1.0 mph N1.6 kmh N 4.0 mph6.4 kmh 30.19 in1022.4 mb 0.00 in0.0 mm 0.00 in/hr0.0 mm/hr 0.00 in0.0 mm
04:05 AM 45.0°F7.2°C 41.1°F5.1°C 86% 1.0 mph N1.6 kmh N 4.0 mph6.4 kmh 30.19 in1022.4 mb 0.00 in0.0 mm 0.00 in/hr0.0 mm/hr 0.00 in0.0 mm
04:04 AM 45.1°F7.3°C 40.9°F4.9°C 85% 2.0 mph N3.2 kmh N 4.0 mph6.4 kmh 30.19 in1022.4 mb 0.00 in0.0 mm 0.00 in/hr0.0 mm/hr 0.00 in0.0 mm
04:03 AM 45.1°F7.3°C 40.9°F4.9°C 85% 3.0 mph N4.8 kmh N 4.0 mph6.4 kmh 30.19 in1022.4 mb 0.00 in0.0 mm 0.00 in/hr0.0 mm/hr 0.00 in0.0 mm
04:00 AM 45.2°F7.3°C 41.0°F5.0°C 85% Calm Calm -- 30.19 in1022.4 mb 0.00 in0.0 mm 0.00 in/hr0.0 mm/hr 0.00 in0.0 mm
03:59 AM 45.2°F7.3°C 41.0°F5.0°C 85% 1.0 mph N1.6 kmh N 6.0 mph9.7 kmh 30.19 in1022.4 mb 0.00 in0.0 mm 0.00 in/hr0.0 mm/hr 0.00 in0.0 mm
03:58 AM 45.2°F7.3°C 41.0°F5.0°C 85% 1.0 mph N1.6 kmh N 6.0 mph9.7 kmh 30.19 in1022.4 mb 0.00 in0.0 mm 0.00 in/hr0.0 mm/hr 0.00 in0.0 mm
03:55 AM 45.3°F7.4°C 41.1°F5.1°C 85% 3.0 mph N4.8 kmh N 6.0 mph9.7 kmh 30.19 in1022.4 mb 0.00 in0.0 mm 0.00 in/hr0.0 mm/hr 0.00 in0.0 mm
03:54 AM 45.3°F7.4°C 41.1°F5.1°C 85% 4.0 mph N6.4 kmh N 6.0 mph9.7 kmh 30.19 in1022.4 mb 0.00 in0.0 mm 0.00 in/hr0.0 mm/hr 0.00 in0.0 mm
03:53 AM 45.3°F7.4°C 41.1°F5.1°C 85% 2.0 mph N3.2 kmh N 6.0 mph9.7 kmh 30.19 in1022.4 mb 0.00 in0.0 mm 0.00 in/hr0.0 mm/hr 0.00 in0.0 mm
03:50 AM 45.4°F7.4°C 41.2°F5.1°C 85% 3.0 mph N4.8 kmh N 6.0 mph9.7 kmh 30.19 in1022.4 mb 0.00 in0.0 mm 0.00 in/hr0.0 mm/hr 0.00 in0.0 mm
03:49 AM 45.4°F7.4°C 40.9°F4.9°C 84% Calm Calm 6.0 mph9.7 kmh 30.19 in1022.4 mb 0.00 in0.0 mm 0.00 in/hr0.0 mm/hr 0.00 in0.0 mm
03:48 AM 45.4°F7.4°C 41.2°F5.1°C 85% 2.0 mph N3.2 kmh N 6.0 mph9.7 kmh 30.19 in1022.4 mb 0.00 in0.0 mm 0.00 in/hr0.0 mm/hr 0.00 in0.0 mm
03:45 AM 45.5°F7.5°C 41.0°F5.0°C 84% Calm Calm 6.0 mph9.7 kmh 30.19 in1022.4 mb 0.00 in0.0 mm 0.00 in/hr0.0 mm/hr 0.00 in0.0 mm
03:44 AM 45.6°F7.6°C 41.1°F5.1°C 84% Calm Calm 6.0 mph9.7 kmh 30.19 in1022.4 mb 0.00 in0.0 mm 0.00 in/hr0.0 mm/hr 0.00 in0.0 mm
03:43 AM 45.7°F7.6°C 41.2°F5.1°C 84% 2.0 mph N3.2 kmh N 6.0 mph9.7 kmh 30.19 in1022.4 mb 0.00 in0.0 mm 0.00 in/hr0.0 mm/hr 0.00 in0.0 mm
03:40 AM 45.8°F7.7°C 41.3°F5.2°C 84% 3.0 mph N4.8 kmh N 6.0 mph9.7 kmh 30.19 in1022.4 mb 0.00 in0.0 mm 0.00 in/hr0.0 mm/hr 0.00 in0.0 mm
03:39 AM 45.8°F7.7°C 41.3°F5.2°C 84% 3.0 mph N4.8 kmh N 6.0 mph9.7 kmh 30.19 in1022.4 mb 0.00 in0.0 mm 0.00 in/hr0.0 mm/hr 0.00 in0.0 mm
03:38 AM 45.9°F7.7°C 41.4°F5.2°C 84% 2.0 mph N3.2 kmh N 6.0 mph9.7 kmh 30.19 in1022.4 mb 0.00 in0.0 mm 0.00 in/hr0.0 mm/hr 0.00 in0.0 mm
03:35 AM 45.9°F7.7°C 41.4°F5.2°C 84% 1.0 mph N1.6 kmh N 6.0 mph9.7 kmh 30.19 in1022.4 mb 0.00 in0.0 mm 0.00 in/hr0.0 mm/hr 0.00 in0.0 mm
03:34 AM 46.0°F7.8°C 41.4°F5.2°C 84% Calm Calm 6.0 mph9.7 kmh 30.19 in1022.4 mb 0.00 in0.0 mm 0.00 in/hr0.0 mm/hr 0.00 in0.0 mm
03:33 AM 46.0°F7.8°C 41.4°F5.2°C 84% 1.0 mph N1.6 kmh N 6.0 mph9.7 kmh 30.19 in1022.4 mb 0.00 in0.0 mm 0.00 in/hr0.0 mm/hr 0.00 in0.0 mm
03:30 AM 46.0°F7.8°C 41.4°F5.2°C 84% 2.0 mph N3.2 kmh N 6.0 mph9.7 kmh 30.19 in1022.4 mb 0.00 in0.0 mm 0.00 in/hr0.0 mm/hr 0.00 in0.0 mm
03:29 AM 46.1°F7.8°C 41.5°F5.3°C 84% 4.0 mph N6.4 kmh N 6.0 mph9.7 kmh 30.19 in1022.4 mb 0.00 in0.0 mm 0.00 in/hr0.0 mm/hr 0.00 in0.0 mm
03:28 AM 46.1°F7.8°C 41.5°F5.3°C 84% 3.0 mph N4.8 kmh N 6.0 mph9.7 kmh 30.19 in1022.4 mb 0.00 in0.0 mm 0.00 in/hr0.0 mm/hr 0.00 in0.0 mm
03:25 AM 46.1°F7.8°C 41.5°F5.3°C 84% Calm Calm 6.0 mph9.7 kmh 30.19 in1022.4 mb 0.00 in0.0 mm 0.00 in/hr0.0 mm/hr 0.00 in0.0 mm
03:24 AM 46.1°F7.8°C 41.5°F5.3°C 84% Calm Calm 6.0 mph9.7 kmh 30.19 in1022.4 mb 0.00 in0.0 mm 0.00 in/hr0.0 mm/hr 0.00 in0.0 mm
03:23 AM 46.2°F7.9°C 41.6°F5.3°C 84% Calm Calm 6.0 mph9.7 kmh 30.18 in1022.0 mb 0.00 in0.0 mm 0.00 in/hr0.0 mm/hr 0.00 in0.0 mm
03:20 AM 46.3°F7.9°C 41.7°F5.4°C 84% Calm Calm 6.0 mph9.7 kmh 30.18 in1022.0 mb 0.00 in0.0 mm 0.00 in/hr0.0 mm/hr 0.00 in0.0 mm
03:19 AM 46.3°F7.9°C 41.7°F5.4°C 84% 2.0 mph N3.2 kmh N 6.0 mph9.7 kmh 30.19 in1022.4 mb 0.00 in0.0 mm 0.00 in/hr0.0 mm/hr 0.00 in0.0 mm
03:18 AM 46.3°F7.9°C 41.7°F5.4°C 84% 1.0 mph N1.6 kmh N 6.0 mph9.7 kmh 30.19 in1022.4 mb 0.00 in0.0 mm 0.00 in/hr0.0 mm/hr 0.00 in0.0 mm
03:15 AM 46.4°F8.0°C 41.8°F5.4°C 84% 3.0 mph N4.8 kmh N 6.0 mph9.7 kmh 30.19 in1022.4 mb 0.00 in0.0 mm 0.00 in/hr0.0 mm/hr 0.00 in0.0 mm
03:14 AM 46.5°F8.1°C 41.9°F5.5°C 84% 2.0 mph N3.2 kmh N 6.0 mph9.7 kmh 30.19 in1022.4 mb 0.00 in0.0 mm 0.00 in/hr0.0 mm/hr 0.00 in0.0 mm
03:13 AM 46.4°F8.0°C 41.8°F5.4°C 84% 2.0 mph N3.2 kmh N 6.0 mph9.7 kmh 30.19 in1022.4 mb 0.00 in0.0 mm 0.00 in/hr0.0 mm/hr 0.00 in0.0 mm
03:10 AM 46.4°F8.0°C 41.8°F5.4°C 84% 4.0 mph N6.4 kmh N 5.0 mph8.0 kmh 30.19 in1022.4 mb 0.00 in0.0 mm 0.00 in/hr0.0 mm/hr 0.00 in0.0 mm
03:09 AM 46.4°F8.0°C 41.8°F5.4°C 84% 2.0 mph N3.2 kmh N 5.0 mph8.0 kmh 30.19 in1022.4 mb 0.00 in0.0 mm 0.00 in/hr0.0 mm/hr 0.00 in0.0 mm
03:08 AM 46.3°F7.9°C 41.7°F5.4°C 84% 1.0 mph N1.6 kmh N 5.0 mph8.0 kmh 30.19 in1022.4 mb 0.00 in0.0 mm 0.00 in/hr0.0 mm/hr 0.00 in0.0 mm
03:05 AM 46.3°F7.9°C 41.7°F5.4°C 84% 1.0 mph N1.6 kmh N 3.0 mph4.8 kmh 30.19 in1022.4 mb 0.00 in0.0 mm 0.00 in/hr0.0 mm/hr 0.00 in0.0 mm
03:04 AM 46.3°F7.9°C 42.1°F5.6°C 85% 3.0 mph N4.8 kmh N 3.0 mph4.8 kmh 30.19 in1022.4 mb 0.00 in0.0 mm 0.00 in/hr0.0 mm/hr 0.00 in0.0 mm
03:03 AM 46.3°F7.9°C 42.1°F5.6°C 85% Calm Calm 3.0 mph4.8 kmh 30.19 in1022.4 mb 0.00 in0.0 mm 0.00 in/hr0.0 mm/hr 0.00 in0.0 mm
03:00 AM 46.2°F7.9°C 42.0°F5.6°C 85% 1.0 mph N1.6 kmh N 1.0 mph1.6 kmh 30.19 in1022.4 mb 0.00 in0.0 mm 0.00 in/hr0.0 mm/hr 0.00 in0.0 mm
02:59 AM 46.2°F7.9°C 42.0°F5.6°C 85% 2.0 mph N3.2 kmh N 6.0 mph9.7 kmh 30.19 in1022.4 mb 0.00 in0.0 mm 0.00 in/hr0.0 mm/hr 0.00 in0.0 mm
02:58 AM 46.2°F7.9°C 42.0°F5.6°C 85% 2.0 mph N3.2 kmh N 6.0 mph9.7 kmh 30.19 in1022.4 mb 0.00 in0.0 mm 0.00 in/hr0.0 mm/hr 0.00 in0.0 mm
02:55 AM 46.2°F7.9°C 42.0°F5.6°C 85% 2.0 mph N3.2 kmh N 6.0 mph9.7 kmh 30.19 in1022.4 mb 0.00 in0.0 mm 0.00 in/hr0.0 mm/hr 0.00 in0.0 mm
02:54 AM 46.1°F7.8°C 41.9°F5.5°C 85% 3.0 mph N4.8 kmh N 6.0 mph9.7 kmh 30.19 in1022.4 mb 0.00 in0.0 mm 0.00 in/hr0.0 mm/hr 0.00 in0.0 mm
02:53 AM 46.1°F7.8°C 41.9°F5.5°C 85% 3.0 mph N4.8 kmh N 6.0 mph9.7 kmh 30.19 in1022.4 mb 0.00 in0.0 mm 0.00 in/hr0.0 mm/hr 0.00 in0.0 mm
02:50 AM 46.1°F7.8°C 42.2°F5.7°C 86% 1.0 mph N1.6 kmh N 6.0 mph9.7 kmh 30.19 in1022.4 mb 0.00 in0.0 mm 0.00 in/hr0.0 mm/hr 0.00 in0.0 mm
02:49 AM 46.0°F7.8°C 42.1°F5.6°C 86% 3.0 mph N4.8 kmh N 6.0 mph9.7 kmh 30.19 in1022.4 mb 0.00 in0.0 mm 0.00 in/hr0.0 mm/hr 0.00 in0.0 mm
02:48 AM 46.0°F7.8°C 42.1°F5.6°C 86% 3.0 mph N4.8 kmh N 6.0 mph9.7 kmh 30.19 in1022.4 mb 0.00 in0.0 mm 0.00 in/hr0.0 mm/hr 0.00 in0.0 mm
02:45 AM 45.9°F7.7°C 42.0°F5.6°C 86% 3.0 mph N4.8 kmh N 5.0 mph8.0 kmh 30.19 in1022.4 mb 0.00 in0.0 mm 0.00 in/hr0.0 mm/hr 0.00 in0.0 mm
02:44 AM 45.9°F7.7°C 42.0°F5.6°C 86% 1.0 mph N1.6 kmh N 5.0 mph8.0 kmh 30.19 in1022.4 mb 0.00 in0.0 mm 0.00 in/hr0.0 mm/hr 0.00 in0.0 mm
02:43 AM 45.9°F7.7°C 42.0°F5.6°C 86% 3.0 mph N4.8 kmh N 5.0 mph8.0 kmh 30.19 in1022.4 mb 0.00 in0.0 mm 0.00 in/hr0.0 mm/hr 0.00 in0.0 mm
02:40 AM 46.0°F7.8°C 42.1°F5.6°C 86% 2.0 mph N3.2 kmh N 5.0 mph8.0 kmh 30.19 in1022.4 mb 0.00 in0.0 mm 0.00 in/hr0.0 mm/hr 0.00 in0.0 mm
02:39 AM 45.9°F7.7°C 42.0°F5.6°C 86% 3.0 mph N4.8 kmh N 5.0 mph8.0 kmh 30.19 in1022.4 mb 0.00 in0.0 mm 0.00 in/hr0.0 mm/hr 0.00 in0.0 mm
02:38 AM 45.9°F7.7°C 42.0°F5.6°C 86% 1.0 mph N1.6 kmh N 5.0 mph8.0 kmh 30.19 in1022.4 mb 0.00 in0.0 mm 0.00 in/hr0.0 mm/hr 0.00 in0.0 mm
02:35 AM 45.9°F7.7°C 42.0°F5.6°C 86% 5.0 mph N8.0 kmh N 5.0 mph8.0 kmh 30.19 in1022.4 mb 0.00 in0.0 mm 0.00 in/hr0.0 mm/hr 0.00 in0.0 mm
02:34 AM 45.9°F7.7°C 42.0°F5.6°C 86% 2.0 mph N3.2 kmh N 5.0 mph8.0 kmh 30.19 in1022.4 mb 0.00 in0.0 mm 0.00 in/hr0.0 mm/hr 0.00 in0.0 mm
02:33 AM 45.9°F7.7°C 42.0°F5.6°C 86% 2.0 mph N3.2 kmh N 5.0 mph8.0 kmh 30.19 in1022.4 mb 0.00 in0.0 mm 0.00 in/hr0.0 mm/hr 0.00 in0.0 mm
02:30 AM 45.9°F7.7°C 42.0°F5.6°C 86% 1.0 mph N1.6 kmh N 5.0 mph8.0 kmh 30.19 in1022.4 mb 0.00 in0.0 mm 0.00 in/hr0.0 mm/hr 0.00 in0.0 mm
02:29 AM 46.0°F7.8°C 42.1°F5.6°C 86% 2.0 mph N3.2 kmh N 5.0 mph8.0 kmh 30.19 in1022.4 mb 0.00 in0.0 mm 0.00 in/hr0.0 mm/hr 0.00 in0.0 mm
02:28 AM 46.0°F7.8°C 42.1°F5.6°C 86% 2.0 mph N3.2 kmh N 5.0 mph8.0 kmh 30.19 in1022.4 mb 0.00 in0.0 mm 0.00 in/hr0.0 mm/hr 0.00 in0.0 mm
02:25 AM 46.0°F7.8°C 42.1°F5.6°C 86% 1.0 mph N1.6 kmh N 5.0 mph8.0 kmh 30.19 in1022.4 mb 0.00 in0.0 mm 0.00 in/hr0.0 mm/hr 0.00 in0.0 mm
02:24 AM 46.1°F7.8°C 42.2°F5.7°C 86% Calm Calm 5.0 mph8.0 kmh 30.19 in1022.4 mb 0.00 in0.0 mm 0.00 in/hr0.0 mm/hr 0.00 in0.0 mm
02:23 AM 46.0°F7.8°C 42.1°F5.6°C 86% 1.0 mph N1.6 kmh N 5.0 mph8.0 kmh 30.19 in1022.4 mb 0.00 in0.0 mm 0.00 in/hr0.0 mm/hr 0.00 in0.0 mm
02:20 AM 46.0°F7.8°C 41.8°F5.4°C 85% 2.0 mph N3.2 kmh N 5.0 mph8.0 kmh 30.19 in1022.4 mb 0.00 in0.0 mm 0.00 in/hr0.0 mm/hr 0.00 in0.0 mm
02:19 AM 46.1°F7.8°C 41.9°F5.5°C 85% 2.0 mph N3.2 kmh N 5.0 mph8.0 kmh 30.19 in1022.4 mb 0.00 in0.0 mm 0.00 in/hr0.0 mm/hr 0.00 in0.0 mm
02:18 AM 46.1°F7.8°C 41.9°F5.5°C 85% Calm Calm 5.0 mph8.0 kmh 30.19 in1022.4 mb 0.00 in0.0 mm 0.00 in/hr0.0 mm/hr 0.00 in0.0 mm
02:15 AM 46.1°F7.8°C 41.9°F5.5°C 85% 2.0 mph N3.2 kmh N 5.0 mph8.0 kmh 30.19 in1022.4 mb 0.00 in0.0 mm 0.00 in/hr0.0 mm/hr 0.00 in0.0 mm
02:14 AM 46.2°F7.9°C 42.0°F5.6°C 85% Calm Calm 5.0 mph8.0 kmh 30.19 in1022.4 mb 0.00 in0.0 mm 0.00 in/hr0.0 mm/hr 0.00 in0.0 mm
02:13 AM 46.2°F7.9°C 42.0°F5.6°C 85% Calm Calm 5.0 mph8.0 kmh 30.19 in1022.4 mb 0.00 in0.0 mm 0.00 in/hr0.0 mm/hr 0.00 in0.0 mm
02:10 AM 46.2°F7.9°C 42.0°F5.6°C 85% 2.0 mph N3.2 kmh N 5.0 mph8.0 kmh 30.19 in1022.4 mb 0.00 in0.0 mm 0.00 in/hr0.0 mm/hr 0.00 in0.0 mm
02:09 AM 46.2°F7.9°C 42.0°F5.6°C 85% Calm Calm 5.0 mph8.0 kmh 30.19 in1022.4 mb 0.00 in0.0 mm 0.00 in/hr0.0 mm/hr 0.00 in0.0 mm
02:08 AM 46.2°F7.9°C 42.0°F5.6°C 85% 3.0 mph N4.8 kmh N 5.0 mph8.0 kmh 30.19 in1022.4 mb 0.00 in0.0 mm 0.00 in/hr0.0 mm/hr 0.00 in0.0 mm
02:05 AM 46.4°F8.0°C 42.1°F5.6°C 85% Calm Calm 5.0 mph8.0 kmh 30.19 in1022.4 mb 0.00 in0.0 mm 0.00 in/hr0.0 mm/hr 0.00 in0.0 mm
02:04 AM 46.4°F8.0°C 42.1°F5.6°C 85% Calm Calm 5.0 mph8.0 kmh 30.19 in1022.4 mb 0.00 in0.0 mm 0.00 in/hr0.0 mm/hr 0.00 in0.0 mm
02:03 AM 46.5°F8.1°C 42.2°F5.7°C 85% 3.0 mph N4.8 kmh N 5.0 mph8.0 kmh 30.19 in1022.4 mb 0.00 in0.0 mm 0.00 in/hr0.0 mm/hr 0.00 in0.0 mm
02:00 AM 46.5°F8.1°C 42.2°F5.7°C 85% 2.0 mph N3.2 kmh N 2.0 mph3.2 kmh 30.19 in1022.4 mb 0.00 in0.0 mm 0.00 in/hr0.0 mm/hr 0.00 in0.0 mm
01:59 AM 46.5°F8.1°C 42.2°F5.7°C 85% 1.0 mph N1.6 kmh N 6.0 mph9.7 kmh 30.19 in1022.4 mb 0.00 in0.0 mm 0.00 in/hr0.0 mm/hr 0.00 in0.0 mm
01:58 AM 46.5°F8.1°C 42.2°F5.7°C 85% 3.0 mph N4.8 kmh N 6.0 mph9.7 kmh 30.19 in1022.4 mb 0.00 in0.0 mm 0.00 in/hr0.0 mm/hr 0.00 in0.0 mm
01:55 AM 46.6°F8.1°C 42.3°F5.7°C 85% 1.0 mph N1.6 kmh N 6.0 mph9.7 kmh 30.20 in1022.7 mb 0.00 in0.0 mm 0.00 in/hr0.0 mm/hr 0.00 in0.0 mm
01:54 AM 46.5°F8.1°C 42.2°F5.7°C 85% 3.0 mph N4.8 kmh N 6.0 mph9.7 kmh 30.20 in1022.7 mb 0.00 in0.0 mm 0.00 in/hr0.0 mm/hr 0.00 in0.0 mm
01:53 AM 46.5°F8.1°C 42.2°F5.7°C 85% 2.0 mph N3.2 kmh N 6.0 mph9.7 kmh 30.20 in1022.7 mb 0.00 in0.0 mm 0.00 in/hr0.0 mm/hr 0.00 in0.0 mm
01:50 AM 46.5°F8.1°C 42.2°F5.7°C 85% 2.0 mph N3.2 kmh N 6.0 mph9.7 kmh 30.20 in1022.7 mb 0.00 in0.0 mm 0.00 in/hr0.0 mm/hr 0.00 in0.0 mm
01:49 AM 46.5°F8.1°C 42.2°F5.7°C 85% 1.0 mph N1.6 kmh N 6.0 mph9.7 kmh 30.20 in1022.7 mb 0.00 in0.0 mm 0.00 in/hr0.0 mm/hr 0.00 in0.0 mm
01:48 AM 46.5°F8.1°C 42.2°F5.7°C 85% Calm Calm 6.0 mph9.7 kmh 30.20 in1022.7 mb 0.00 in0.0 mm 0.00 in/hr0.0 mm/hr 0.00 in0.0 mm
01:45 AM 46.6°F8.1°C 42.0°F5.6°C 84% 2.0 mph N3.2 kmh N 6.0 mph9.7 kmh 30.20 in1022.7 mb 0.00 in0.0 mm 0.00 in/hr0.0 mm/hr 0.00 in0.0 mm
01:44 AM 46.7°F8.2°C 42.1°F5.6°C 84% Calm Calm 6.0 mph9.7 kmh 30.20 in1022.7 mb 0.00 in0.0 mm 0.00 in/hr0.0 mm/hr 0.00 in0.0 mm
01:43 AM 46.7°F8.2°C 42.1°F5.6°C 84% 4.0 mph N6.4 kmh N 6.0 mph9.7 kmh 30.20 in1022.7 mb 0.00 in0.0 mm 0.00 in/hr0.0 mm/hr 0.00 in0.0 mm
01:40 AM 46.9°F8.3°C 42.3°F5.7°C 84% 4.0 mph N6.4 kmh N 6.0 mph9.7 kmh 30.20 in1022.7 mb 0.00 in0.0 mm 0.00 in/hr0.0 mm/hr 0.00 in0.0 mm
01:39 AM 46.9°F8.3°C 42.3°F5.7°C 84% 3.0 mph N4.8 kmh N 6.0 mph9.7 kmh 30.20 in1022.7 mb 0.00 in0.0 mm 0.00 in/hr0.0 mm/hr 0.00 in0.0 mm
01:38 AM 46.9°F8.3°C 42.3°F5.7°C 84% Calm Calm 6.0 mph9.7 kmh 30.20 in1022.7 mb 0.00 in0.0 mm 0.00 in/hr0.0 mm/hr 0.00 in0.0 mm
01:35 AM 47.0°F8.3°C 42.4°F5.8°C 84% 3.0 mph N4.8 kmh N 6.0 mph9.7 kmh 30.20 in1022.7 mb 0.00 in0.0 mm 0.00 in/hr0.0 mm/hr 0.00 in0.0 mm
01:34 AM 47.0°F8.3°C 42.4°F5.8°C 84% 3.0 mph N4.8 kmh N 6.0 mph9.7 kmh 30.20 in1022.7 mb 0.00 in0.0 mm 0.00 in/hr0.0 mm/hr 0.00 in0.0 mm
01:33 AM 47.1°F8.4°C 42.5°F5.8°C 84% Calm Calm 6.0 mph9.7 kmh 30.21 in1023.0 mb 0.00 in0.0 mm 0.00 in/hr0.0 mm/hr 0.00 in0.0 mm
01:30 AM 47.1°F8.4°C 42.5°F5.8°C 84% 1.0 mph N1.6 kmh N 6.0 mph9.7 kmh 30.21 in1023.0 mb 0.00 in0.0 mm 0.00 in/hr0.0 mm/hr 0.00 in0.0 mm
01:29 AM 47.2°F8.4°C 42.6°F5.9°C 84% 1.0 mph N1.6 kmh N 6.0 mph9.7 kmh 30.21 in1023.0 mb 0.00 in0.0 mm 0.00 in/hr0.0 mm/hr 0.00 in0.0 mm
01:28 AM 47.2°F8.4°C 42.6°F5.9°C 84% 2.0 mph N3.2 kmh N 6.0 mph9.7 kmh 30.21 in1023.0 mb 0.00 in0.0 mm 0.00 in/hr0.0 mm/hr 0.00 in0.0 mm
01:25 AM 47.2°F8.4°C 42.6°F5.9°C 84% 2.0 mph N3.2 kmh N 6.0 mph9.7 kmh 30.21 in1023.0 mb 0.00 in0.0 mm 0.00 in/hr0.0 mm/hr 0.00 in0.0 mm
01:24 AM 47.2°F8.4°C 42.6°F5.9°C 84% Calm Calm 6.0 mph9.7 kmh 30.21 in1023.0 mb 0.00 in0.0 mm 0.00 in/hr0.0 mm/hr 0.00 in0.0 mm
01:23 AM 47.3°F8.5°C 42.7°F5.9°C 84% 1.0 mph N1.6 kmh N 6.0 mph9.7 kmh 30.21 in1023.0 mb 0.00 in0.0 mm 0.00 in/hr0.0 mm/hr 0.00 in0.0 mm
01:20 AM 47.4°F8.6°C 42.5°F5.8°C 83% Calm Calm 6.0 mph9.7 kmh 30.21 in1023.0 mb 0.00 in0.0 mm 0.00 in/hr0.0 mm/hr 0.00 in0.0 mm
01:19 AM 47.4°F8.6°C 42.5°F5.8°C 83% Calm Calm 6.0 mph9.7 kmh 30.21 in1023.0 mb 0.00 in0.0 mm 0.00 in/hr0.0 mm/hr 0.00 in0.0 mm
01:18 AM 47.4°F8.6°C 42.5°F5.8°C 83% 3.0 mph N4.8 kmh N 6.0 mph9.7 kmh 30.21 in1023.0 mb 0.00 in0.0 mm 0.00 in/hr0.0 mm/hr 0.00 in0.0 mm
01:15 AM 47.5°F8.6°C 42.6°F5.9°C 83% 1.0 mph N1.6 kmh N 6.0 mph9.7 kmh 30.21 in1023.0 mb 0.00 in0.0 mm 0.00 in/hr0.0 mm/hr 0.00 in0.0 mm
01:14 AM 47.5°F8.6°C 42.6°F5.9°C 83% 1.0 mph N1.6 kmh N 6.0 mph9.7 kmh 30.21 in1023.0 mb 0.00 in0.0 mm 0.00 in/hr0.0 mm/hr 0.00 in0.0 mm
01:13 AM 47.5°F8.6°C 42.6°F5.9°C 83% 2.0 mph N3.2 kmh N 6.0 mph9.7 kmh 30.21 in1023.0 mb 0.00 in0.0 mm 0.00 in/hr0.0 mm/hr 0.00 in0.0 mm
01:10 AM 47.6°F8.7°C 42.7°F5.9°C 83% 1.0 mph N1.6 kmh N 6.0 mph9.7 kmh 30.21 in1023.0 mb 0.00 in0.0 mm 0.00 in/hr0.0 mm/hr 0.00 in0.0 mm
01:09 AM 47.6°F8.7°C 42.7°F5.9°C 83% 4.0 mph N6.4 kmh N 6.0 mph9.7 kmh 30.21 in1023.0 mb 0.00 in0.0 mm 0.00 in/hr0.0 mm/hr 0.00 in0.0 mm
01:08 AM 47.6°F8.7°C 42.7°F5.9°C 83% 3.0 mph N4.8 kmh N 6.0 mph9.7 kmh 30.21 in1023.0 mb 0.00 in0.0 mm 0.00 in/hr0.0 mm/hr 0.00 in0.0 mm
01:05 AM 47.7°F8.7°C 42.8°F6.0°C 83% 4.0 mph N6.4 kmh N 6.0 mph9.7 kmh 30.21 in1023.0 mb 0.00 in0.0 mm 0.00 in/hr0.0 mm/hr 0.00 in0.0 mm
01:04 AM 47.7°F8.7°C 42.5°F5.8°C 82% 5.0 mph N8.0 kmh N 6.0 mph9.7 kmh 30.21 in1023.0 mb 0.00 in0.0 mm 0.00 in/hr0.0 mm/hr 0.00 in0.0 mm
01:03 AM 47.8°F8.8°C 42.6°F5.9°C 82% 2.0 mph N3.2 kmh N 6.0 mph9.7 kmh 30.21 in1023.0 mb 0.00 in0.0 mm 0.00 in/hr0.0 mm/hr 0.00 in0.0 mm
01:00 AM 47.9°F8.8°C 42.7°F5.9°C 82% 1.0 mph N1.6 kmh N 1.0 mph1.6 kmh 30.21 in1023.0 mb 0.00 in0.0 mm 0.00 in/hr0.0 mm/hr 0.00 in0.0 mm
12:59 AM 47.9°F8.8°C 42.7°F5.9°C 82% 3.0 mph N4.8 kmh N 7.0 mph11.3 kmh 30.21 in1023.0 mb 0.00 in0.0 mm 0.00 in/hr0.0 mm/hr 0.00 in0.0 mm
12:58 AM 47.9°F8.8°C 42.7°F5.9°C 82% 5.0 mph N8.0 kmh N 7.0 mph11.3 kmh 30.21 in1023.0 mb 0.00 in0.0 mm 0.00 in/hr0.0 mm/hr 0.00 in0.0 mm
12:55 AM 48.0°F8.9°C 42.8°F6.0°C 82% 2.0 mph N3.2 kmh N 7.0 mph11.3 kmh 30.21 in1023.0 mb 0.00 in0.0 mm 0.00 in/hr0.0 mm/hr 0.00 in0.0 mm
12:54 AM 48.0°F8.9°C 42.8°F6.0°C 82% 3.0 mph N4.8 kmh N 7.0 mph11.3 kmh 30.21 in1023.0 mb 0.00 in0.0 mm 0.00 in/hr0.0 mm/hr 0.00 in0.0 mm
12:53 AM 48.0°F8.9°C 42.8°F6.0°C 82% 3.0 mph N4.8 kmh N 7.0 mph11.3 kmh 30.21 in1023.0 mb 0.00 in0.0 mm 0.00 in/hr0.0 mm/hr 0.00 in0.0 mm
12:50 AM 48.2°F9.0°C 43.0°F6.1°C 82% 4.0 mph N6.4 kmh N 7.0 mph11.3 kmh 30.22 in1023.4 mb 0.00 in0.0 mm 0.00 in/hr0.0 mm/hr 0.00 in0.0 mm
12:49 AM 48.2°F9.0°C 42.7°F5.9°C 81% 1.0 mph N1.6 kmh N 7.0 mph11.3 kmh 30.22 in1023.4 mb 0.00 in0.0 mm 0.00 in/hr0.0 mm/hr 0.00 in0.0 mm
12:48 AM 48.2°F9.0°C 42.7°F5.9°C 81% Calm Calm 7.0 mph11.3 kmh 30.21 in1023.0 mb 0.00 in0.0 mm 0.00 in/hr0.0 mm/hr 0.00 in0.0 mm
12:45 AM 48.3°F9.1°C 42.8°F6.0°C 81% 4.0 mph N6.4 kmh N 7.0 mph11.3 kmh 30.22 in1023.4 mb 0.00 in0.0 mm 0.00 in/hr0.0 mm/hr 0.00 in0.0 mm
12:44 AM 48.4°F9.1°C 42.9°F6.1°C 81% 4.0 mph N6.4 kmh N 7.0 mph11.3 kmh 30.22 in1023.4 mb 0.00 in0.0 mm 0.00 in/hr0.0 mm/hr 0.00 in0.0 mm
12:43 AM 48.4°F9.1°C 42.9°F6.1°C 81% 5.0 mph N8.0 kmh N 7.0 mph11.3 kmh 30.22 in1023.4 mb 0.00 in0.0 mm 0.00 in/hr0.0 mm/hr 0.00 in0.0 mm
12:40 AM 48.5°F9.2°C 43.0°F6.1°C 81% 4.0 mph N6.4 kmh N 7.0 mph11.3 kmh 30.22 in1023.4 mb 0.00 in0.0 mm 0.00 in/hr0.0 mm/hr 0.00 in0.0 mm
12:39 AM 48.5°F9.2°C 43.0°F6.1°C 81% 4.0 mph N6.4 kmh N 7.0 mph11.3 kmh 30.22 in1023.4 mb 0.00 in0.0 mm 0.00 in/hr0.0 mm/hr 0.00 in0.0 mm
12:38 AM 48.5°F9.2°C 43.0°F6.1°C 81% 3.0 mph N4.8 kmh N 7.0 mph11.3 kmh 30.22 in1023.4 mb 0.00 in0.0 mm 0.00 in/hr0.0 mm/hr 0.00 in0.0 mm
12:35 AM 48.6°F9.2°C 43.0°F6.1°C 81% 1.0 mph N1.6 kmh N 6.0 mph9.7 kmh 30.22 in1023.4 mb 0.00 in0.0 mm 0.00 in/hr0.0 mm/hr 0.00 in0.0 mm
12:34 AM 48.6°F9.2°C 42.7°F5.9°C 80% 4.0 mph N6.4 kmh N 6.0 mph9.7 kmh 30.22 in1023.4 mb 0.00 in0.0 mm 0.00 in/hr0.0 mm/hr 0.00 in0.0 mm
12:33 AM 48.7°F9.3°C 42.8°F6.0°C 80% Calm Calm 5.0 mph8.0 kmh 30.22 in1023.4 mb 0.00 in0.0 mm 0.00 in/hr0.0 mm/hr 0.00 in0.0 mm
12:30 AM 48.8°F9.3°C 42.9°F6.1°C 80% 2.0 mph N3.2 kmh N 5.0 mph8.0 kmh 30.22 in1023.4 mb 0.00 in0.0 mm 0.00 in/hr0.0 mm/hr 0.00 in0.0 mm
12:29 AM 48.8°F9.3°C 42.9°F6.1°C 80% Calm Calm 5.0 mph8.0 kmh 30.22 in1023.4 mb 0.00 in0.0 mm 0.00 in/hr0.0 mm/hr 0.00 in0.0 mm
12:28 AM 48.8°F9.3°C 42.9°F6.1°C 80% 2.0 mph N3.2 kmh N 5.0 mph8.0 kmh 30.22 in1023.4 mb 0.00 in0.0 mm 0.00 in/hr0.0 mm/hr 0.00 in0.0 mm
12:25 AM 48.9°F9.4°C 43.0°F6.1°C 80% 1.0 mph N1.6 kmh N 5.0 mph8.0 kmh 30.22 in1023.4 mb 0.00 in0.0 mm 0.00 in/hr0.0 mm/hr 0.00 in0.0 mm
12:24 AM 48.9°F9.4°C 43.0°F6.1°C 80% 3.0 mph N4.8 kmh N 5.0 mph8.0 kmh 30.23 in1023.7 mb 0.00 in0.0 mm 0.00 in/hr0.0 mm/hr 0.00 in0.0 mm
12:23 AM 48.9°F9.4°C 43.0°F6.1°C 80% Calm Calm 5.0 mph8.0 kmh 30.23 in1023.7 mb 0.00 in0.0 mm 0.00 in/hr0.0 mm/hr 0.00 in0.0 mm
12:20 AM 49.1°F9.5°C 43.2°F6.2°C 80% 1.0 mph N1.6 kmh N 4.0 mph6.4 kmh 30.23 in1023.7 mb 0.00 in0.0 mm 0.00 in/hr0.0 mm/hr 0.00 in0.0 mm
12:19 AM 49.1°F9.5°C 42.9°F6.1°C 79% 2.0 mph N3.2 kmh N 4.0 mph6.4 kmh 30.23 in1023.7 mb 0.00 in0.0 mm 0.00 in/hr0.0 mm/hr 0.00 in0.0 mm
12:18 AM 49.1°F9.5°C 42.9°F6.1°C 79% Calm Calm 4.0 mph6.4 kmh 30.23 in1023.7 mb 0.00 in0.0 mm 0.00 in/hr0.0 mm/hr 0.00 in0.0 mm
12:15 AM 49.3°F9.6°C 43.1°F6.2°C 79% 2.0 mph N3.2 kmh N 4.0 mph6.4 kmh 30.23 in1023.7 mb 0.00 in0.0 mm 0.00 in/hr0.0 mm/hr 0.00 in0.0 mm
12:14 AM 49.3°F9.6°C 43.1°F6.2°C 79% 2.0 mph N3.2 kmh N 4.0 mph6.4 kmh 30.23 in1023.7 mb 0.00 in0.0 mm 0.00 in/hr0.0 mm/hr 0.00 in0.0 mm
12:13 AM 49.3°F9.6°C 43.1°F6.2°C 79% 3.0 mph N4.8 kmh N 4.0 mph6.4 kmh 30.23 in1023.7 mb 0.00 in0.0 mm 0.00 in/hr0.0 mm/hr 0.00 in0.0 mm
12:10 AM 49.4°F9.7°C 43.2°F6.2°C 79% 1.0 mph N1.6 kmh N 3.0 mph4.8 kmh 30.23 in1023.7 mb 0.00 in0.0 mm 0.00 in/hr0.0 mm/hr 0.00 in0.0 mm
12:09 AM 49.5°F9.7°C 43.3°F6.3°C 79% Calm Calm 3.0 mph4.8 kmh 30.23 in1023.7 mb 0.00 in0.0 mm 0.00 in/hr0.0 mm/hr 0.00 in0.0 mm
12:08 AM 49.5°F9.7°C 43.3°F6.3°C 79% 1.0 mph N1.6 kmh N 3.0 mph4.8 kmh 30.23 in1023.7 mb 0.00 in0.0 mm 0.00 in/hr0.0 mm/hr 0.00 in0.0 mm
12:05 AM 49.6°F9.8°C 43.0°F6.1°C 78% Calm Calm 2.0 mph3.2 kmh 30.23 in1023.7 mb 0.00 in0.0 mm 0.00 in/hr0.0 mm/hr 0.00 in0.0 mm
12:04 AM 49.6°F9.8°C 43.0°F6.1°C 78% 2.0 mph N3.2 kmh N 2.0 mph3.2 kmh 30.23 in1023.7 mb 0.00 in0.0 mm 0.00 in/hr0.0 mm/hr 0.00 in0.0 mm
12:03 AM 49.6°F9.8°C 43.4°F6.3°C 79% Calm Calm 2.0 mph3.2 kmh 30.23 in1023.7 mb 0.00 in0.0 mm 0.00 in/hr0.0 mm/hr 0.00 in0.0 mm
12:00 AM 49.7°F9.8°C 43.1°F6.2°C 78% 1.0 mph N1.6 kmh N 1.0 mph1.6 kmh 30.23 in1023.7 mb 0.00 in0.0 mm 0.00 in/hr0.0 mm/hr 0.00 in0.0 mm